Time;durP1;ratioP1;P1;durP2;ratioP2;P2;SDS_P1;SDS_P2;PMS_P1;PMS_P2;Temp;Humidity;BMP_temperature;BMP_pressure;BME280_temperature;BME280_humidity;BME280_pressure;Samples;Min_cycle;Max_cycle;Signal;HPM_P1;HPM_P2
2022/07/22 00:01:29;;;;;;;7.05;6.55;;;;;;;;;;5055917;28;20204;-62
2022/07/22 00:04:17;;;;;;;7.07;6.68;;;;;;;;;;5066885;28;20660;-63
2022/07/22 00:07:04;;;;;;;7.00;6.60;;;;;;;;;;5062460;28;20939;-62
2022/07/22 00:09:51;;;;;;;6.80;6.40;;;;;;;;;;5061052;28;20263;-63
2022/07/22 00:12:39;;;;;;;7.20;6.70;;;;;;;;;;5061969;28;20846;-62
2022/07/22 00:15:26;;;;;;;6.95;6.50;;;;;;;;;;5059113;28;20613;-62
2022/07/22 00:18:13;;;;;;;7.18;6.72;;;;;;;;;;5062234;28;20285;-62
2022/07/22 00:21:02;;;;;;;7.10;6.60;;;;;;;;;;5063865;28;20219;-63
2022/07/22 00:23:49;;;;;;;7.55;7.05;;;;;;;;;;5059514;28;20293;-63
2022/07/22 00:26:36;;;;;;;7.00;6.43;;;;;;;;;;5065577;28;20211;-62
2022/07/22 00:29:23;;;;;;;7.32;6.82;;;;;;;;;;5060243;28;20208;-67
2022/07/22 00:32:10;;;;;;;7.03;6.43;;;;;;;;;;5063769;28;20229;-62
2022/07/22 00:34:56;;;;;;;7.43;6.85;;;;;;;;;;5066996;28;20280;-62
2022/07/22 00:37:45;;;;;;;7.38;6.88;;;;;;;;;;5060245;28;20694;-62
2022/07/22 00:40:32;;;;;;;7.30;6.82;;;;;;;;;;5056738;28;20281;-62
2022/07/22 00:43:19;;;;;;;7.15;6.65;;;;;;;;;;5061167;28;20612;-62
2022/07/22 00:46:06;;;;;;;6.93;6.43;;;;;;;;;;5057344;28;20208;-63
2022/07/22 00:48:54;;;;;;;7.13;6.63;;;;;;;;;;5059949;28;20662;-62
2022/07/22 00:51:41;;;;;;;7.07;6.57;;;;;;;;;;5068909;28;20590;-62
2022/07/22 00:54:30;;;;;;;6.97;6.57;;;;;;;;;;5057377;28;20218;-62
2022/07/22 00:57:17;;;;;;;7.32;6.78;;;;;;;;;;5059403;28;20282;-63
2022/07/22 01:00:07;;;;;;;7.05;6.65;;;;;;;;;;5058898;28;20205;-62
2022/07/22 01:02:54;;;;;;;7.32;6.80;;;;;;;;;;5062867;28;20201;-58
2022/07/22 01:05:41;;;;;;;6.75;6.35;;;;;;;;;;5062394;28;20238;-58
2022/07/22 01:08:28;;;;;;;7.18;6.78;;;;;;;;;;5059288;28;20217;-59
2022/07/22 01:11:19;;;;;;;6.68;6.28;;;;;;;;;;5059214;28;20232;-59
2022/07/22 01:14:06;;;;;;;7.57;7.05;;;;;;;;;;5062866;28;20222;-59
2022/07/22 01:16:53;;;;;;;7.47;6.97;;;;;;;;;;5058818;28;20568;-58
2022/07/22 01:19:40;;;;;;;7.10;6.55;;;;;;;;;;5056627;28;20208;-59
2022/07/22 01:22:29;;;;;;;7.18;6.68;;;;;;;;;;5062547;28;20235;-58
2022/07/22 01:25:16;;;;;;;7.00;6.50;;;;;;;;;;5057218;28;20242;-58
2022/07/22 01:28:03;;;;;;;6.90;6.40;;;;;;;;;;5059653;28;20293;-59
2022/07/22 01:30:51;;;;;;;6.72;6.28;;;;;;;;;;5062815;28;20663;-58
2022/07/22 01:33:38;;;;;;;6.78;6.38;;;;;;;;;;5062450;28;20299;-58
2022/07/22 01:36:26;;;;;;;6.93;6.43;;;;;;;;;;5060919;28;20209;-58
2022/07/22 01:39:15;;;;;;;6.97;6.38;;;;;;;;;;5057493;28;20212;-59
2022/07/22 01:42:02;;;;;;;6.05;5.65;;;;;;;;;;5060288;28;20786;-59
2022/07/22 01:44:49;;;;;;;6.60;6.20;;;;;;;;;;5057271;28;20213;-59
2022/07/22 01:47:36;;;;;;;6.57;6.18;;;;;;;;;;5055670;28;20214;-58
2022/07/22 01:50:23;;;;;;;6.20;5.78;;;;;;;;;;5059928;28;20210;-67
2022/07/22 01:53:10;;;;;;;6.32;5.93;;;;;;;;;;5061695;28;20739;-58
2022/07/22 01:55:58;;;;;;;6.28;5.88;;;;;;;;;;5060855;28;20228;-59
2022/07/22 01:58:45;;;;;;;6.38;5.90;;;;;;;;;;5058535;28;20214;-59
2022/07/22 02:01:32;;;;;;;6.13;5.72;;;;;;;;;;5062013;28;20209;-59
2022/07/22 02:04:19;;;;;;;6.03;5.60;;;;;;;;;;5058188;28;20212;-58
2022/07/22 02:07:06;;;;;;;6.35;5.85;;;;;;;;;;5062810;28;20211;-58
2022/07/22 02:09:53;;;;;;;6.32;5.82;;;;;;;;;;5063967;28;20236;-59
2022/07/22 02:12:42;;;;;;;6.22;5.82;;;;;;;;;;5059841;28;20296;-58
2022/07/22 02:15:29;;;;;;;6.25;5.85;;;;;;;;;;5060363;28;20223;-59
2022/07/22 02:18:18;;;;;;;5.97;5.45;;;;;;;;;;5057263;28;20200;-58
2022/07/22 02:21:05;;;;;;;5.97;5.57;;;;;;;;;;5060084;28;20207;-59
2022/07/22 02:23:52;;;;;;;5.78;5.38;;;;;;;;;;5062833;28;20295;-58
2022/07/22 02:26:39;;;;;;;5.97;5.53;;;;;;;;;;5061560;28;20216;-58
2022/07/22 02:29:28;;;;;;;6.10;5.70;;;;;;;;;;5061217;28;20204;-58
2022/07/22 02:32:15;;;;;;;5.97;5.47;;;;;;;;;;5060611;28;20239;-58
2022/07/22 02:35:02;;;;;;;5.57;5.20;;;;;;;;;;5057526;28;20289;-58
2022/07/22 02:37:49;;;;;;;6.00;5.60;;;;;;;;;;5058209;28;20222;-58
2022/07/22 02:40:36;;;;;;;6.15;5.75;;;;;;;;;;5060503;28;20329;-58
2022/07/22 02:43:23;;;;;;;5.53;5.13;;;;;;;;;;5061681;28;20199;-58
2022/07/22 02:46:11;;;;;;;6.03;5.53;;;;;;;;;;5059038;28;20286;-58
2022/07/22 02:48:59;;;;;;;5.70;5.20;;;;;;;;;;5058038;28;20211;-58
2022/07/22 02:51:45;;;;;;;5.50;5.20;;;;;;;;;;5063604;28;20303;-58
2022/07/22 02:54:32;;;;;;;5.50;5.10;;;;;;;;;;5059829;28;20207;-58
2022/07/22 02:57:19;;;;;;;5.82;5.38;;;;;;;;;;5058673;28;20200;-58
2022/07/22 03:00:08;;;;;;;5.07;4.78;;;;;;;;;;5060431;28;20288;-58
2022/07/22 03:02:56;;;;;;;5.57;5.18;;;;;;;;;;5060579;28;20201;-58
2022/07/22 03:05:43;;;;;;;5.85;5.38;;;;;;;;;;5060574;28;20232;-58
2022/07/22 03:08:30;;;;;;;5.28;4.97;;;;;;;;;;5058371;28;20237;-58
2022/07/22 03:11:17;;;;;;;5.32;4.95;;;;;;;;;;5057958;28;20267;-58
2022/07/22 03:14:04;;;;;;;5.13;4.82;;;;;;;;;;5057276;28;20207;-58
2022/07/22 03:16:51;;;;;;;5.40;5.07;;;;;;;;;;5057770;28;20276;-57
2022/07/22 03:19:39;;;;;;;5.40;4.97;;;;;;;;;;5055581;28;20214;-57
2022/07/22 03:22:26;;;;;;;5.10;4.80;;;;;;;;;;5057070;28;20243;-58
2022/07/22 03:25:13;;;;;;;5.07;4.78;;;;;;;;;;5058891;28;20210;-57
2022/07/22 03:28:00;;;;;;;5.20;4.80;;;;;;;;;;5062771;28;20211;-57
2022/07/22 03:30:47;;;;;;;4.88;4.47;;;;;;;;;;5065371;28;20274;-58
2022/07/22 03:33:34;;;;;;;4.95;4.53;;;;;;;;;;5056597;28;20215;-57
2022/07/22 03:36:23;;;;;;;4.80;4.40;;;;;;;;;;5056364;28;20200;-57
2022/07/22 03:39:10;;;;;;;4.68;4.32;;;;;;;;;;5062913;28;20205;-58
2022/07/22 03:41:57;;;;;;;4.95;4.60;;;;;;;;;;5065824;28;20202;-58
2022/07/22 03:44:44;;;;;;;5.20;4.80;;;;;;;;;;5056267;28;20235;-58
2022/07/22 03:47:31;;;;;;;5.25;4.75;;;;;;;;;;5061976;28;20237;-58
2022/07/22 03:50:18;;;;;;;4.85;4.45;;;;;;;;;;5055059;28;20668;-58
2022/07/22 03:53:06;;;;;;;4.68;4.28;;;;;;;;;;5057395;28;20236;-58
2022/07/22 03:55:53;;;;;;;4.78;4.38;;;;;;;;;;5060129;28;20208;-58
2022/07/22 03:58:40;;;;;;;5.10;4.70;;;;;;;;;;5058609;28;20200;-58
2022/07/22 04:01:27;;;;;;;5.05;4.55;;;;;;;;;;5054059;28;20620;-59
2022/07/22 04:04:14;;;;;;;4.95;4.65;;;;;;;;;;5061003;28;20196;-58
2022/07/22 04:07:01;;;;;;;4.70;4.40;;;;;;;;;;5063980;28;20316;-57
2022/07/22 04:09:49;;;;;;;4.78;4.35;;;;;;;;;;5060805;28;20206;-58
2022/07/22 04:12:38;;;;;;;4.28;3.97;;;;;;;;;;5059636;28;20228;-58
2022/07/22 04:15:25;;;;;;;4.97;4.57;;;;;;;;;;5063895;28;20206;-57
2022/07/22 04:18:12;;;;;;;4.82;4.53;;;;;;;;;;5062582;28;20206;-58
2022/07/22 04:20:59;;;;;;;4.63;4.25;;;;;;;;;;5059476;28;20201;-58
2022/07/22 04:23:46;;;;;;;4.63;4.30;;;;;;;;;;5062715;28;20199;-57
2022/07/22 04:26:36;;;;;;;4.50;4.20;;;;;;;;;;5060139;28;20308;-57
2022/07/22 04:29:23;;;;;;;4.25;3.95;;;;;;;;;;5064456;28;20202;-58
2022/07/22 04:32:10;;;;;;;4.75;4.35;;;;;;;;;;5063002;28;20222;-57
2022/07/22 04:34:57;;;;;;;4.40;4.10;;;;;;;;;;5061377;28;20206;-58
2022/07/22 04:37:44;;;;;;;4.32;3.92;;;;;;;;;;5060390;28;20212;-58
2022/07/22 04:40:31;;;;;;;4.85;4.55;;;;;;;;;;5062160;28;20528;-57
2022/07/22 04:43:19;;;;;;;3.92;3.63;;;;;;;;;;5062246;28;20211;-58
2022/07/22 04:46:06;;;;;;;4.53;4.20;;;;;;;;;;5060822;28;20211;-58
2022/07/22 04:48:53;;;;;;;4.43;4.07;;;;;;;;;;5063031;28;20211;-58
2022/07/22 04:51:40;;;;;;;3.83;3.63;;;;;;;;;;5063459;28;20231;-58
2022/07/22 04:54:27;;;;;;;4.07;3.78;;;;;;;;;;5057959;28;20209;-58
2022/07/22 04:57:14;;;;;;;4.30;4.00;;;;;;;;;;5063693;28;20206;-57
2022/07/22 05:00:03;;;;;;;4.07;3.78;;;;;;;;;;5060235;28;20764;-57
2022/07/22 05:02:51;;;;;;;4.35;3.95;;;;;;;;;;5063844;28;20226;-57
2022/07/22 05:05:37;;;;;;;4.00;3.65;;;;;;;;;;5062009;28;20674;-58
2022/07/22 05:08:24;;;;;;;4.43;4.00;;;;;;;;;;5060406;28;20202;-58
2022/07/22 05:11:12;;;;;;;4.35;4.05;;;;;;;;;;5065218;28;20232;-58
2022/07/22 05:13:59;;;;;;;3.90;3.60;;;;;;;;;;5060863;28;20352;-58
2022/07/22 05:16:48;;;;;;;4.03;3.63;;;;;;;;;;5058568;28;20737;-63
2022/07/22 05:19:34;;;;;;;4.28;3.85;;;;;;;;;;5057431;28;20214;-58
2022/07/22 05:22:21;;;;;;;4.10;3.80;;;;;;;;;;5061463;28;20233;-59
2022/07/22 05:25:09;;;;;;;4.43;4.03;;;;;;;;;;5060814;28;20210;-59
2022/07/22 05:27:56;;;;;;;3.83;3.53;;;;;;;;;;5060977;28;20277;-58
2022/07/22 05:30:43;;;;;;;4.13;3.78;;;;;;;;;;5062465;28;20253;-59
2022/07/22 05:33:31;;;;;;;4.13;3.78;;;;;;;;;;5058784;28;20365;-59
2022/07/22 05:36:19;;;;;;;3.67;3.40;;;;;;;;;;5061016;28;20208;-58
2022/07/22 05:39:06;;;;;;;3.85;3.55;;;;;;;;;;5065760;28;20215;-59
2022/07/22 05:41:52;;;;;;;3.88;3.53;;;;;;;;;;5061241;28;20218;-60
2022/07/22 05:44:39;;;;;;;3.55;3.35;;;;;;;;;;5065508;28;20207;-58
2022/07/22 05:47:26;;;;;;;3.70;3.40;;;;;;;;;;5059421;28;20207;-58
2022/07/22 05:50:15;;;;;;;3.47;3.17;;;;;;;;;;5055325;28;20209;-58
2022/07/22 05:53:02;;;;;;;3.60;3.30;;;;;;;;;;5058544;28;20563;-59
2022/07/22 05:55:49;;;;;;;3.72;3.50;;;;;;;;;;5060711;28;20232;-58
2022/07/22 05:58:36;;;;;;;3.40;3.20;;;;;;;;;;5059376;28;20312;-59
2022/07/22 06:01:23;;;;;;;3.60;3.30;;;;;;;;;;5062201;28;20299;-58
2022/07/22 06:04:10;;;;;;;3.40;3.20;;;;;;;;;;5056744;28;20903;-59
2022/07/22 06:06:58;;;;;;;3.40;3.20;;;;;;;;;;5057621;28;20241;-59
2022/07/22 06:09:46;;;;;;;3.30;3.10;;;;;;;;;;5057567;28;20204;-59
2022/07/22 06:12:33;;;;;;;3.40;3.10;;;;;;;;;;5054732;28;20244;-58
2022/07/22 06:15:20;;;;;;;3.00;2.80;;;;;;;;;;5058806;28;20219;-59
2022/07/22 06:18:07;;;;;;;3.60;3.30;;;;;;;;;;5058036;28;20562;-59
2022/07/22 06:20:54;;;;;;;3.22;3.03;;;;;;;;;;5058942;28;20233;-58
2022/07/22 06:23:42;;;;;;;3.08;2.88;;;;;;;;;;5063415;28;20244;-59
2022/07/22 06:26:29;;;;;;;3.05;2.85;;;;;;;;;;5060746;28;20207;-58
2022/07/22 06:29:16;;;;;;;3.08;2.88;;;;;;;;;;5054689;28;20207;-58
2022/07/22 06:32:03;;;;;;;3.17;2.97;;;;;;;;;;5057675;28;20209;-58
2022/07/22 06:34:50;;;;;;;3.05;2.85;;;;;;;;;;5061937;28;20318;-58
2022/07/22 06:37:37;;;;;;;3.42;3.13;;;;;;;;;;5059020;28;20262;-59
2022/07/22 06:40:25;;;;;;;3.40;3.10;;;;;;;;;;5056801;28;20202;-59
2022/07/22 06:43:12;;;;;;;2.80;2.60;;;;;;;;;;5054782;28;20208;-59
2022/07/22 06:46:00;;;;;;;3.33;3.03;;;;;;;;;;5062767;28;20205;-59
2022/07/22 06:48:47;;;;;;;3.05;2.85;;;;;;;;;;5064949;28;20208;-60
2022/07/22 06:51:34;;;;;;;3.30;3.00;;;;;;;;;;5058677;28;20214;-59
2022/07/22 06:54:21;;;;;;;3.22;3.03;;;;;;;;;;5053828;28;20805;-59
2022/07/22 06:57:09;;;;;;;3.00;2.80;;;;;;;;;;5056776;28;20563;-59
2022/07/22 06:59:56;;;;;;;2.72;2.63;;;;;;;;;;5059887;28;20316;-59
2022/07/22 07:02:43;;;;;;;2.88;2.67;;;;;;;;;;5060421;28;20203;-58
2022/07/22 07:05:30;;;;;;;3.30;3.03;;;;;;;;;;5057756;28;20234;-59
2022/07/22 07:08:17;;;;;;;3.17;2.88;;;;;;;;;;5056694;28;20214;-59
2022/07/22 07:11:04;;;;;;;3.10;2.90;;;;;;;;;;5056290;28;20241;-58
2022/07/22 07:13:53;;;;;;;2.58;2.38;;;;;;;;;;5059091;28;20227;-59
2022/07/22 07:16:40;;;;;;;3.00;2.70;;;;;;;;;;5055513;28;20293;-58
2022/07/22 07:19:27;;;;;;;3.00;2.80;;;;;;;;;;5056418;28;20199;-58
2022/07/22 07:22:14;;;;;;;3.30;3.00;;;;;;;;;;5057275;28;20240;-59
2022/07/22 07:25:03;;;;;;;3.10;2.90;;;;;;;;;;5059424;28;20215;-59
2022/07/22 07:27:50;;;;;;;2.88;2.67;;;;;;;;;;5055799;28;20616;-60
2022/07/22 07:30:39;;;;;;;3.00;2.80;;;;;;;;;;5061101;28;20207;-59
2022/07/22 07:33:26;;;;;;;2.78;2.58;;;;;;;;;;5056838;28;20233;-58
2022/07/22 07:36:13;;;;;;;3.05;2.85;;;;;;;;;;5052346;28;20210;-59
2022/07/22 07:39:00;;;;;;;2.85;2.65;;;;;;;;;;5060774;28;20203;-59
2022/07/22 07:41:47;;;;;;;3.13;2.92;;;;;;;;;;5061545;28;20230;-58
2022/07/22 07:44:34;;;;;;;3.00;2.70;;;;;;;;;;5061399;28;20240;-59
2022/07/22 07:47:23;;;;;;;2.95;2.75;;;;;;;;;;5063019;28;20213;-59
2022/07/22 07:50:11;;;;;;;2.67;2.47;;;;;;;;;;5064155;28;20207;-60
2022/07/22 07:52:58;;;;;;;3.40;3.10;;;;;;;;;;5062707;28;20208;-59
2022/07/22 07:55:45;;;;;;;2.75;2.60;;;;;;;;;;5062269;28;20203;-58
2022/07/22 07:58:32;;;;;;;2.75;2.55;;;;;;;;;;5063356;28;20824;-59
2022/07/22 08:01:19;;;;;;;3.40;2.50;;;;;;;;;;5060457;28;20212;-59
2022/07/22 08:04:08;;;;;;;3.22;2.92;;;;;;;;;;5059009;28;20698;-58
2022/07/22 08:06:55;;;;;;;2.70;2.50;;;;;;;;;;5060874;28;20228;-58
2022/07/22 08:09:42;;;;;;;2.80;2.60;;;;;;;;;;5059807;28;20265;-58
2022/07/22 08:12:29;;;;;;;2.90;2.70;;;;;;;;;;5055655;28;20215;-58
2022/07/22 08:15:16;;;;;;;2.63;2.42;;;;;;;;;;5063715;28;20207;-58
2022/07/22 08:18:04;;;;;;;2.65;2.45;;;;;;;;;;5056934;28;20281;-58
2022/07/22 08:20:52;;;;;;;2.50;2.33;;;;;;;;;;5061074;28;20207;-58
2022/07/22 08:23:39;;;;;;;2.75;2.55;;;;;;;;;;5062912;28;20234;-58
2022/07/22 08:26:26;;;;;;;2.50;2.35;;;;;;;;;;5061133;28;20687;-58
2022/07/22 08:29:13;;;;;;;2.70;2.50;;;;;;;;;;5059229;28;20648;-58
2022/07/22 08:32:00;;;;;;;4.00;2.67;;;;;;;;;;5061141;28;20461;-58
2022/07/22 08:34:47;;;;;;;2.97;2.78;;;;;;;;;;5059299;28;20231;-58
2022/07/22 08:37:36;;;;;;;3.20;2.42;;;;;;;;;;5058925;28;20207;-58
2022/07/22 08:40:23;;;;;;;2.30;2.20;;;;;;;;;;5060124;28;20580;-59
2022/07/22 08:43:10;;;;;;;2.53;2.40;;;;;;;;;;5059646;28;20235;-58
2022/07/22 08:45:59;;;;;;;2.83;2.63;;;;;;;;;;5058446;28;20212;-58
2022/07/22 08:48:46;;;;;;;2.70;2.60;;;;;;;;;;5061403;28;20215;-58
2022/07/22 08:51:34;;;;;;;2.47;2.38;;;;;;;;;;5063138;28;20694;-58
2022/07/22 08:54:22;;;;;;;2.58;2.42;;;;;;;;;;5060941;28;20712;-58
2022/07/22 08:57:09;;;;;;;2.67;2.47;;;;;;;;;;5056157;28;20208;-58
2022/07/22 08:59:58;;;;;;;2.83;2.42;;;;;;;;;;5056666;28;20207;-58
2022/07/22 09:02:45;;;;;;;2.85;2.53;;;;;;;;;;5055788;28;20239;-57
2022/07/22 09:05:34;;;;;;;2.30;2.20;;;;;;;;;;5056802;28;20390;-58
2022/07/22 09:08:22;;;;;;;2.58;2.38;;;;;;;;;;5056786;28;20207;-58
2022/07/22 09:11:17;;;;;;;3.35;2.50;;;;;;;;;;5064528;28;20202;-58
2022/07/22 09:14:05;;;;;;;2.63;2.42;;;;;;;;;;5061346;28;20691;-58
2022/07/22 09:16:52;;;;;;;2.75;2.30;;;;;;;;;;5055134;28;20285;-58
2022/07/22 09:19:39;;;;;;;2.50;2.30;;;;;;;;;;5054825;28;20264;-58
2022/07/22 09:22:34;;;;;;;2.45;2.33;;;;;;;;;;5055276;28;20244;-58
2022/07/22 09:25:27;;;;;;;2.47;2.25;;;;;;;;;;5060171;28;20573;-58
2022/07/22 09:28:18;;;;;;;2.97;2.67;;;;;;;;;;5057118;28;20210;-59
2022/07/22 09:31:05;;;;;;;2.30;2.10;;;;;;;;;;5055083;28;20211;-58
2022/07/22 09:33:53;;;;;;;2.33;2.13;;;;;;;;;;5060679;28;20211;-58
2022/07/22 09:36:55;;;;;;;2.72;2.33;;;;;;;;;;5063495;28;20217;-58
2022/07/22 09:39:42;;;;;;;3.13;2.50;;;;;;;;;;5058147;28;20209;-58
2022/07/22 09:42:45;;;;;;;2.20;2.05;;;;;;;;;;5064602;28;20283;-58
2022/07/22 09:45:34;;;;;;;2.30;2.10;;;;;;;;;;5056608;28;20209;-58
2022/07/22 09:48:22;;;;;;;2.50;2.30;;;;;;;;;;5060455;28;20221;-59
2022/07/22 09:51:09;;;;;;;2.50;2.30;;;;;;;;;;5055926;28;20210;-59
2022/07/22 09:53:56;;;;;;;2.58;2.38;;;;;;;;;;5058283;28;20228;-58
2022/07/22 09:56:45;;;;;;;2.38;2.17;;;;;;;;;;5054787;28;20278;-59
2022/07/22 09:59:32;;;;;;;2.40;2.20;;;;;;;;;;5057646;28;20219;-58
2022/07/22 10:02:21;;;;;;;2.78;2.30;;;;;;;;;;5060467;28;20231;-58
2022/07/22 10:05:11;;;;;;;2.42;1.98;;;;;;;;;;5053449;28;20309;-58
2022/07/22 10:08:00;;;;;;;2.38;2.13;;;;;;;;;;5051472;28;20743;-59
2022/07/22 10:10:47;;;;;;;2.50;2.13;;;;;;;;;;5060187;28;20656;-58
2022/07/22 10:13:38;;;;;;;2.72;2.22;;;;;;;;;;5054891;28;20208;-58
2022/07/22 10:16:25;;;;;;;2.00;1.90;;;;;;;;;;5058357;28;20200;-59
2022/07/22 10:19:14;;;;;;;2.38;2.17;;;;;;;;;;5056543;28;20207;-58
2022/07/22 10:22:01;;;;;;;3.97;2.42;;;;;;;;;;5055537;28;20231;-59
2022/07/22 10:25:00;;;;;;;2.30;2.10;;;;;;;;;;5057619;28;20196;-58
2022/07/22 10:27:49;;;;;;;4.72;2.50;;;;;;;;;;5056067;28;20200;-59
2022/07/22 10:30:38;;;;;;;2.85;2.00;;;;;;;;;;5060500;28;20580;-58
2022/07/22 10:33:30;;;;;;;2.83;2.20;;;;;;;;;;5058103;28;20677;-58
2022/07/22 10:36:33;;;;;;;2.42;2.22;;;;;;;;;;5050912;28;20647;-58
2022/07/22 10:39:20;;;;;;;2.58;2.20;;;;;;;;;;5053817;28;20361;-59
2022/07/22 10:42:07;;;;;;;2.42;2.22;;;;;;;;;;5053967;28;20199;-59
2022/07/22 10:44:57;;;;;;;3.10;2.33;;;;;;;;;;5055382;28;20227;-58
2022/07/22 10:47:54;;;;;;;2.30;2.08;;;;;;;;;;5057541;28;20708;-58
2022/07/22 10:50:49;;;;;;;2.10;1.95;;;;;;;;;;5052146;28;20223;-59
2022/07/22 10:53:52;;;;;;;2.63;2.38;;;;;;;;;;5054408;28;20233;-59
2022/07/22 10:56:42;;;;;;;2.17;1.98;;;;;;;;;;5054133;28;20223;-58
2022/07/22 10:59:29;;;;;;;3.13;2.25;;;;;;;;;;5053698;28;20214;-59
2022/07/22 11:02:19;;;;;;;2.22;2.03;;;;;;;;;;5057134;28;20199;-58
2022/07/22 11:05:08;;;;;;;2.55;2.13;;;;;;;;;;5058157;28;20224;-58
2022/07/22 11:07:55;;;;;;;1.58;1.50;;;;;;;;;;5052504;28;20252;-58
2022/07/22 11:10:49;;;;;;;2.05;1.88;;;;;;;;;;5053826;28;20845;-58
2022/07/22 11:13:38;;;;;;;2.50;2.17;;;;;;;;;;5057370;28;20211;-59
2022/07/22 11:16:27;;;;;;;2.22;2.03;;;;;;;;;;5056368;28;20197;-59
2022/07/22 11:19:15;;;;;;;2.13;1.85;;;;;;;;;;5062506;28;20206;-59
2022/07/22 11:22:04;;;;;;;3.17;2.13;;;;;;;;;;5058962;28;20235;-59
2022/07/22 11:24:51;;;;;;;2.38;1.90;;;;;;;;;;5061369;28;20210;-58
2022/07/22 11:27:39;;;;;;;2.28;1.58;;;;;;;;;;5056703;28;20200;-58
2022/07/22 11:30:26;;;;;;;2.13;1.90;;;;;;;;;;5060671;28;20202;-59
2022/07/22 11:33:13;;;;;;;2.35;2.00;;;;;;;;;;5059481;28;20485;-58
2022/07/22 11:36:05;;;;;;;2.50;1.98;;;;;;;;;;5057856;28;20586;-58
2022/07/22 11:38:52;;;;;;;2.28;2.03;;;;;;;;;;5059655;28;20264;-58
2022/07/22 11:41:39;;;;;;;2.67;2.00;;;;;;;;;;5059786;28;20254;-57
2022/07/22 11:44:29;;;;;;;2.28;1.73;;;;;;;;;;5059691;28;20223;-58
2022/07/22 11:47:16;;;;;;;2.47;1.92;;;;;;;;;;5061585;28;20204;-58
2022/07/22 11:50:03;;;;;;;2.08;1.88;;;;;;;;;;5061612;28;20211;-58
2022/07/22 11:52:53;;;;;;;3.55;2.30;;;;;;;;;;5057926;28;20231;-59
2022/07/22 11:55:39;;;;;;;2.30;2.10;;;;;;;;;;5057954;28;20243;-58
2022/07/22 11:58:46;;;;;;;2.15;1.95;;;;;;;;;;5061840;28;20300;-58
2022/07/22 12:01:36;;;;;;;2.30;2.05;;;;;;;;;;5062363;28;20706;-59
2022/07/22 12:04:25;;;;;;;2.63;2.00;;;;;;;;;;5067987;28;20336;-59
2022/07/22 12:07:12;;;;;;;2.42;1.90;;;;;;;;;;5054580;28;20304;-58
2022/07/22 12:09:59;;;;;;;2.15;1.88;;;;;;;;;;5061033;28;20266;-58
2022/07/22 12:12:47;;;;;;;2.55;1.95;;;;;;;;;;5054173;28;20266;-58
2022/07/22 12:15:34;;;;;;;2.03;1.65;;;;;;;;;;5060409;28;20245;-58
2022/07/22 12:18:25;;;;;;;3.25;2.20;;;;;;;;;;5055086;28;20248;-58
2022/07/22 12:21:12;;;;;;;2.13;1.92;;;;;;;;;;5059600;28;20682;-58
2022/07/22 12:24:02;;;;;;;1.80;1.70;;;;;;;;;;5055253;28;20249;-58
2022/07/22 12:26:50;;;;;;;1.98;1.88;;;;;;;;;;5058848;28;20200;-58
2022/07/22 12:29:44;;;;;;;2.28;1.80;;;;;;;;;;5060735;28;20212;-58
2022/07/22 12:32:31;;;;;;;2.67;1.75;;;;;;;;;;5057989;28;20722;-57
2022/07/22 12:35:19;;;;;;;2.00;1.75;;;;;;;;;;5064412;28;20306;-58
2022/07/22 12:38:08;;;;;;;2.20;2.00;;;;;;;;;;5052781;28;20420;-58
2022/07/22 12:40:55;;;;;;;3.22;1.83;;;;;;;;;;5056389;28;20664;-58
2022/07/22 12:43:42;;;;;;;2.25;1.73;;;;;;;;;;5063493;28;20388;-58
2022/07/22 12:46:29;;;;;;;1.80;1.70;;;;;;;;;;5057763;28;20199;-59
2022/07/22 12:49:18;;;;;;;1.77;1.63;;;;;;;;;;5061884;28;20203;-58
2022/07/22 12:52:11;;;;;;;2.42;2.00;;;;;;;;;;5054671;28;20588;-58
2022/07/22 12:54:58;;;;;;;2.67;2.30;;;;;;;;;;5056778;28;20219;-58
2022/07/22 12:57:45;;;;;;;4.15;1.92;;;;;;;;;;5067719;28;20211;-58
2022/07/22 13:00:34;;;;;;;2.38;1.90;;;;;;;;;;5059637;28;20555;-58
2022/07/22 13:03:25;;;;;;;2.20;2.00;;;;;;;;;;5056672;28;20200;-58
2022/07/22 13:06:12;;;;;;;2.60;2.00;;;;;;;;;;5059084;28;20357;-58
2022/07/22 13:09:00;;;;;;;2.20;2.00;;;;;;;;;;5056070;28;20231;-58
2022/07/22 13:11:47;;;;;;;2.58;1.73;;;;;;;;;;5057625;28;20308;-57
2022/07/22 13:14:34;;;;;;;2.92;2.10;;;;;;;;;;5061129;28;20222;-58
2022/07/22 13:17:21;;;;;;;1.88;1.63;;;;;;;;;;5061312;28;20206;-58
2022/07/22 13:20:09;;;;;;;2.03;1.80;;;;;;;;;;5067897;28;20213;-58
2022/07/22 13:22:56;;;;;;;1.92;1.77;;;;;;;;;;5062014;28;20629;-58
2022/07/22 13:25:45;;;;;;;2.10;1.88;;;;;;;;;;5062169;28;20277;-58
2022/07/22 13:28:32;;;;;;;2.08;1.70;;;;;;;;;;5057156;28;20216;-58
2022/07/22 13:31:19;;;;;;;3.00;1.90;;;;;;;;;;5058297;28;20207;-58
2022/07/22 13:34:06;;;;;;;2.20;1.70;;;;;;;;;;5063151;28;20584;-58
2022/07/22 13:36:53;;;;;;;2.05;1.75;;;;;;;;;;5058766;28;20203;-59
2022/07/22 13:39:41;;;;;;;1.92;1.55;;;;;;;;;;5056633;28;20301;-59
2022/07/22 13:42:30;;;;;;;2.08;1.70;;;;;;;;;;5060801;28;20200;-58
2022/07/22 13:45:17;;;;;;;2.10;1.90;;;;;;;;;;5055900;28;20316;-59
2022/07/22 13:48:04;;;;;;;1.83;1.42;;;;;;;;;;5056455;28;20207;-59
2022/07/22 13:50:51;;;;;;;2.13;1.92;;;;;;;;;;5058704;28;20686;-58
2022/07/22 13:53:38;;;;;;;2.17;1.77;;;;;;;;;;5061130;28;20211;-58
2022/07/22 13:56:25;;;;;;;2.42;1.80;;;;;;;;;;5058007;28;20234;-59
2022/07/22 13:59:14;;;;;;;2.15;1.52;;;;;;;;;;5054506;28;20212;-60
2022/07/22 14:02:01;;;;;;;2.13;1.65;;;;;;;;;;5060404;28;20230;-63
2022/07/22 14:04:48;;;;;;;2.40;1.50;;;;;;;;;;5060711;28;20597;-59
2022/07/22 14:07:35;;;;;;;1.48;1.27;;;;;;;;;;5060308;28;20217;-59
2022/07/22 14:10:22;;;;;;;2.55;2.08;;;;;;;;;;5055225;28;20199;-59
2022/07/22 14:13:09;;;;;;;2.15;1.55;;;;;;;;;;5058790;28;20211;-59
2022/07/22 14:16:33;;;;;;;2.28;1.55;;;;;;;;;;5062047;28;20226;-58
2022/07/22 14:19:07;;;;;;;1.90;1.60;;;;;;;;;;5054190;28;20693;-58
2022/07/22 14:21:54;;;;;;;2.65;1.90;;;;;;;;;;5057378;28;20357;-58
2022/07/22 14:24:41;;;;;;;2.30;1.73;;;;;;;;;;5059320;28;20212;-58
2022/07/22 14:27:28;;;;;;;1.98;1.63;;;;;;;;;;5059735;28;20225;-58
2022/07/22 14:30:16;;;;;;;2.35;1.77;;;;;;;;;;5056213;28;20207;-58
2022/07/22 14:33:05;;;;;;;1.77;1.45;;;;;;;;;;5058556;28;20207;-59
2022/07/22 14:35:52;;;;;;;2.28;1.85;;;;;;;;;;5064276;28;20242;-58
2022/07/22 14:38:39;;;;;;;1.85;1.42;;;;;;;;;;5064789;28;20211;-59
2022/07/22 14:41:26;;;;;;;2.25;1.65;;;;;;;;;;5054138;28;20223;-58
2022/07/22 14:44:13;;;;;;;1.67;1.55;;;;;;;;;;5057635;28;20576;-58
2022/07/22 14:47:00;;;;;;;2.25;1.63;;;;;;;;;;5066122;28;20204;-58
2022/07/22 14:49:48;;;;;;;2.78;1.92;;;;;;;;;;5058488;28;20718;-58
2022/07/22 14:52:35;;;;;;;1.90;1.70;;;;;;;;;;5063461;28;20229;-58
2022/07/22 14:55:22;;;;;;;2.42;1.90;;;;;;;;;;5059675;28;20304;-58
2022/07/22 14:58:09;;;;;;;2.50;1.90;;;;;;;;;;5063455;28;20304;-58
2022/07/22 15:00:56;;;;;;;2.55;1.60;;;;;;;;;;5060868;28;20207;-58
2022/07/22 15:03:43;;;;;;;1.70;1.40;;;;;;;;;;5065552;28;20347;-59
2022/07/22 15:06:32;;;;;;;2.30;1.90;;;;;;;;;;5060846;28;20222;-58
2022/07/22 15:09:19;;;;;;;1.75;1.42;;;;;;;;;;5054928;28;20599;-58
2022/07/22 15:12:06;;;;;;;1.50;1.40;;;;;;;;;;5057459;28;20203;-58
2022/07/22 15:14:53;;;;;;;1.85;1.60;;;;;;;;;;5056687;28;20578;-58
2022/07/22 15:17:40;;;;;;;1.60;1.50;;;;;;;;;;5055360;28;20223;-58
2022/07/22 15:20:27;;;;;;;2.30;1.60;;;;;;;;;;5054608;28;20273;-59
2022/07/22 15:23:16;;;;;;;1.92;1.70;;;;;;;;;;5060901;28;20231;-58
2022/07/22 15:26:03;;;;;;;2.67;1.80;;;;;;;;;;5053986;28;20680;-58
2022/07/22 15:28:51;;;;;;;2.88;1.58;;;;;;;;;;5062874;28;20203;-59
2022/07/22 15:31:38;;;;;;;2.22;1.60;;;;;;;;;;5057207;28;20204;-58
2022/07/22 15:34:25;;;;;;;1.92;1.80;;;;;;;;;;5057960;28;20203;-58
2022/07/22 15:37:12;;;;;;;1.33;1.23;;;;;;;;;;5059144;28;20609;-58
2022/07/22 15:40:01;;;;;;;2.80;1.80;;;;;;;;;;5057728;28;20342;-58
2022/07/22 15:42:48;;;;;;;1.90;1.50;;;;;;;;;;5055815;28;20218;-59
2022/07/22 15:45:35;;;;;;;3.88;1.88;;;;;;;;;;5054263;28;20200;-59
2022/07/22 15:48:22;;;;;;;3.28;1.80;;;;;;;;;;5058727;28;20214;-58
2022/07/22 15:51:10;;;;;;;2.38;1.75;;;;;;;;;;5054263;28;20204;-58
2022/07/22 15:53:57;;;;;;;1.85;1.42;;;;;;;;;;5059399;28;20223;-58
2022/07/22 15:56:45;;;;;;;2.67;1.52;;;;;;;;;;5059623;28;20238;-63
2022/07/22 15:59:31;;;;;;;1.30;1.20;;;;;;;;;;5057413;28;20279;-59
2022/07/22 16:02:18;;;;;;;2.85;1.73;;;;;;;;;;5055268;28;20200;-58
2022/07/22 16:05:06;;;;;;;2.88;1.90;;;;;;;;;;5061705;28;20630;-58
2022/07/22 16:07:53;;;;;;;2.22;1.83;;;;;;;;;;5064983;28;20294;-58
2022/07/22 16:10:40;;;;;;;1.85;1.48;;;;;;;;;;5058810;28;20201;-58
2022/07/22 16:13:28;;;;;;;3.00;1.90;;;;;;;;;;5055743;28;20202;-58
2022/07/22 16:16:15;;;;;;;1.98;1.52;;;;;;;;;;5060825;28;20241;-57
2022/07/22 16:19:03;;;;;;;1.55;1.40;;;;;;;;;;5060212;28;20207;-58
2022/07/22 16:21:50;;;;;;;2.90;2.00;;;;;;;;;;5064153;28;20789;-58
2022/07/22 16:24:37;;;;;;;2.30;1.55;;;;;;;;;;5063118;28;20266;-58
2022/07/22 16:27:24;;;;;;;1.77;1.30;;;;;;;;;;5061889;28;20216;-58
2022/07/22 16:30:14;;;;;;;1.88;1.38;;;;;;;;;;5061434;28;20886;-58
2022/07/22 16:33:01;;;;;;;1.55;1.35;;;;;;;;;;5063280;28;20200;-59
2022/07/22 16:35:48;;;;;;;2.00;1.58;;;;;;;;;;5065005;28;20224;-58
2022/07/22 16:38:35;;;;;;;1.50;1.40;;;;;;;;;;5060950;28;20618;-58
2022/07/22 16:41:22;;;;;;;2.10;1.90;;;;;;;;;;5058647;28;20265;-58
2022/07/22 16:44:09;;;;;;;2.03;1.40;;;;;;;;;;5061227;28;20212;-58
2022/07/22 16:46:57;;;;;;;1.98;1.40;;;;;;;;;;5056335;28;20207;-58